createdAt,value
2019-05-06T00:02:19.069Z,-0.30
2019-05-06T00:07:24.316Z,-0.30
2019-05-06T00:12:28.915Z,-0.30
2019-05-06T00:17:34.938Z,-0.30
2019-05-06T00:22:39.803Z,-0.30
2019-05-06T00:28:04.190Z,-0.20
2019-05-06T00:33:10.029Z,-0.20
2019-05-06T00:38:16.553Z,-0.20
2019-05-06T00:43:20.957Z,-0.20
2019-05-06T00:48:25.557Z,-0.20
2019-05-06T00:53:34.689Z,-0.20
2019-05-06T00:58:39.242Z,-0.10
2019-05-06T01:03:44.308Z,-0.10
2019-05-06T01:08:49.178Z,-0.10
2019-05-06T01:14:01.097Z,-0.20
2019-05-06T01:19:05.718Z,-0.30
2019-05-06T01:24:10.527Z,-0.40
2019-05-06T01:29:15.421Z,-0.40
2019-05-06T01:34:20.786Z,-0.30
2019-05-06T01:39:36.186Z,-0.30
2019-05-06T01:44:40.930Z,-0.50
2019-05-06T01:50:07.119Z,-0.50
2019-05-06T01:55:14.041Z,-0.40
2019-05-06T02:00:18.544Z,-0.30
2019-05-06T02:05:24.250Z,-0.40
2019-05-06T02:10:28.664Z,-0.50
2019-05-06T02:15:34.623Z,-0.50
2019-05-06T02:20:40.948Z,-0.60
2019-05-06T02:25:49.347Z,-0.70
2019-05-06T02:31:25.753Z,-0.70
2019-05-06T02:36:45.856Z,-0.80
2019-05-06T02:41:50.976Z,-0.90
2019-05-06T02:47:04.007Z,-0.90
2019-05-06T02:52:08.796Z,-0.80
2019-05-06T02:57:13.751Z,-0.70
2019-05-06T03:02:35.607Z,-0.80
2019-05-06T03:07:25.342Z,-0.70
2019-05-06T03:12:30.117Z,-0.60
2019-05-06T03:17:34.711Z,-0.60
2019-05-06T03:22:55.253Z,-0.40
2019-05-06T03:28:00.012Z,-0.30
2019-05-06T03:38:13.813Z,0.00
2019-05-06T03:43:18.465Z,0.20
2019-05-06T03:48:27.028Z,0.30
2019-05-06T03:53:33.406Z,0.40
2019-05-06T03:58:38.691Z,0.40
2019-05-06T04:03:48.683Z,0.50
2019-05-06T04:08:52.886Z,0.60
2019-05-06T04:13:57.608Z,0.70
2019-05-06T04:19:23.484Z,0.80
2019-05-06T04:24:53.900Z,0.90
2019-05-06T04:30:00.341Z,0.90
2019-05-06T04:35:05.323Z,1.00
2019-05-06T04:40:13.008Z,1.10
2019-05-06T04:45:17.815Z,1.10
2019-05-06T04:50:24.259Z,1.20
2019-05-06T04:55:29.285Z,1.40
2019-05-06T05:00:34.901Z,1.40
2019-05-06T05:05:39.640Z,1.30
2019-05-06T05:10:58.868Z,1.40
2019-05-06T05:16:28.261Z,1.70
2019-05-06T05:21:33.627Z,1.90
2019-05-06T05:26:39.435Z,2.10
2019-05-06T05:31:44.083Z,2.30
2019-05-06T05:36:48.854Z,2.50
2019-05-06T05:41:55.021Z,2.50
2019-05-06T05:47:03.420Z,2.70
2019-05-06T05:52:08.284Z,3.00
2019-05-06T05:57:13.845Z,3.20
2019-05-06T06:02:22.477Z,3.50
2019-05-06T06:07:27.208Z,3.60
2019-05-06T06:12:33.670Z,3.70
2019-05-06T06:17:56.466Z,4.10
2019-05-06T06:23:06.534Z,4.70
2019-05-06T06:28:12.010Z,5.20
2019-05-06T06:33:16.644Z,5.40
2019-05-06T06:38:25.994Z,5.70
2019-05-06T06:43:32.408Z,6.40
2019-05-06T06:48:37.007Z,6.90
2019-05-06T06:53:42.164Z,7.00
2019-05-06T06:59:05.755Z,7.70
2019-05-06T07:04:14.828Z,8.80
2019-05-06T07:09:19.189Z,10.50
2019-05-06T07:14:24.585Z,11.10
2019-05-06T07:19:37.210Z,11.20
2019-05-06T07:24:43.123Z,11.30
2019-05-06T07:29:48.617Z,12.50
2019-05-06T07:34:55.832Z,12.40
2019-05-06T07:40:02.887Z,10.70
2019-05-06T07:45:44.247Z,9.80
2019-05-06T07:50:49.288Z,9.90
2019-05-06T07:55:53.939Z,10.60
2019-05-06T08:00:58.759Z,11.50
2019-05-06T08:06:03.523Z,12.00
2019-05-06T08:11:08.477Z,12.10
2019-05-06T08:16:14.658Z,11.10
2019-05-06T08:21:22.792Z,11.20
2019-05-06T08:26:27.547Z,11.10
2019-05-06T08:31:32.731Z,10.40
2019-05-06T08:36:56.293Z,10.60
2019-05-06T08:42:02.673Z,10.80
2019-05-06T08:47:07.301Z,10.80
2019-05-06T08:52:13.455Z,10.20
2019-05-06T08:57:18.153Z,10.40
2019-05-06T09:02:24.537Z,10.30
2019-05-06T09:07:29.265Z,10.20
2019-05-06T09:12:34.318Z,10.30
2019-05-06T09:17:39.080Z,10.20
2019-05-06T09:22:43.530Z,10.10
2019-05-06T09:28:13.225Z,9.80
2019-05-06T09:33:22.505Z,9.70
2019-05-06T09:38:27.220Z,10.10
2019-05-06T09:43:32.814Z,10.20
2019-05-06T09:48:54.975Z,9.80
2019-05-06T09:54:24.617Z,9.50
2019-05-06T09:59:32.171Z,9.50
2019-05-06T10:04:37.026Z,9.70
2019-05-06T10:09:44.394Z,10.30
2019-05-06T10:14:49.399Z,10.50
2019-05-06T10:19:55.566Z,10.50
2019-05-06T10:25:03.367Z,10.80
2019-05-06T10:30:09.183Z,10.40
2019-05-06T10:35:15.652Z,10.10
2019-05-06T10:40:26.377Z,9.90
2019-05-06T10:45:32.582Z,9.70
2019-05-06T10:50:42.866Z,9.70
2019-05-06T10:55:53.569Z,9.70
2019-05-06T11:01:14.422Z,10.00
2019-05-06T11:06:21.731Z,10.10
2019-05-06T11:11:36.928Z,9.90
2019-05-06T11:16:34.058Z,10.50
2019-05-06T11:21:39.441Z,12.00
2019-05-06T11:26:44.947Z,11.70
2019-05-06T11:32:14.586Z,10.90
2019-05-06T11:37:42.367Z,10.60
2019-05-06T11:42:36.053Z,11.10
2019-05-06T11:47:42.086Z,11.10
2019-05-06T11:52:47.698Z,11.60
2019-05-06T11:57:53.694Z,12.60
2019-05-06T12:02:58.949Z,12.70
2019-05-06T12:08:08.010Z,12.50
2019-05-06T12:13:12.210Z,12.50
2019-05-06T12:18:17.323Z,12.10
2019-05-06T12:23:22.433Z,11.70
2019-05-06T12:28:27.215Z,11.50
2019-05-06T12:33:39.475Z,10.10
2019-05-06T12:39:06.312Z,9.60
2019-05-06T12:44:08.045Z,9.00
2019-05-06T12:49:12.881Z,9.20
2019-05-06T12:54:17.517Z,9.50
2019-05-06T12:59:23.537Z,9.90
2019-05-06T13:04:48.498Z,10.30
2019-05-06T13:09:34.660Z,10.80
2019-05-06T13:14:39.955Z,10.80
2019-05-06T13:19:47.599Z,10.90
2019-05-06T13:24:53.138Z,11.30
2019-05-06T13:29:58.336Z,11.40
2019-05-06T13:35:04.792Z,12.30
2019-05-06T13:40:09.615Z,12.50
2019-05-06T13:45:14.763Z,12.90
2019-05-06T13:50:22.947Z,13.40
2019-05-06T13:55:27.826Z,13.30
2019-05-06T14:00:33.803Z,13.40
2019-05-06T14:05:39.072Z,12.80
2019-05-06T14:10:43.722Z,12.00
2019-05-06T14:15:49.103Z,11.50
2019-05-06T14:20:53.625Z,11.00
2019-05-06T14:26:23.041Z,11.30
2019-05-06T14:31:32.762Z,11.50
2019-05-06T14:36:38.323Z,11.80
2019-05-06T14:41:45.126Z,11.80
2019-05-06T14:47:01.165Z,11.90
2019-05-06T14:52:06.038Z,11.70
2019-05-06T14:57:13.301Z,11.50
2019-05-06T15:02:19.251Z,11.60
2019-05-06T15:07:24.330Z,11.30
2019-05-06T15:12:29.110Z,11.30
2019-05-06T15:17:36.701Z,11.80
2019-05-06T15:22:41.916Z,12.00
2019-05-06T15:27:46.510Z,11.90
2019-05-06T15:32:52.881Z,12.30
2019-05-06T15:38:02.216Z,12.30
2019-05-06T15:43:07.121Z,12.00
2019-05-06T15:48:12.884Z,11.60
2019-05-06T15:53:18.232Z,11.30
2019-05-06T15:58:22.963Z,11.30
2019-05-06T16:03:28.369Z,11.30
2019-05-06T16:08:32.943Z,11.60
2019-05-06T16:13:37.695Z,11.60
2019-05-06T16:18:42.685Z,11.40
2019-05-06T16:23:59.152Z,11.10
2019-05-06T16:29:04.922Z,10.80
2019-05-06T16:34:09.475Z,10.70
2019-05-06T16:39:14.580Z,10.40
2019-05-06T16:44:19.070Z,10.50
2019-05-06T16:49:24.577Z,10.60
2019-05-06T16:54:31.520Z,10.60
2019-05-06T16:59:37.241Z,10.60
2019-05-06T17:04:50.206Z,10.60
2019-05-06T17:09:54.975Z,10.50
2019-05-06T17:15:00.313Z,10.50
2019-05-06T17:20:08.300Z,10.30
2019-05-06T17:25:13.485Z,9.80
2019-05-06T17:30:27.749Z,9.70
2019-05-06T17:35:32.873Z,9.70
2019-05-06T17:40:38.278Z,9.60
2019-05-06T17:46:01.103Z,9.40
2019-05-06T17:51:30.165Z,9.20
2019-05-06T17:56:35.008Z,9.00
2019-05-06T18:01:47.230Z,8.90
2019-05-06T18:06:53.573Z,8.70
2019-05-06T18:11:59.562Z,8.60
2019-05-06T18:17:04.595Z,8.60
2019-05-06T18:22:10.007Z,8.40
2019-05-06T18:27:14.891Z,8.30
2019-05-06T18:32:19.356Z,8.30
2019-05-06T18:37:24.163Z,8.20
2019-05-06T18:42:29.540Z,8.20
2019-05-06T18:47:34.837Z,8.10
2019-05-06T18:52:40.015Z,8.00
2019-05-06T18:57:44.653Z,8.00
2019-05-06T19:02:52.058Z,7.90
2019-05-06T19:07:56.616Z,7.80
2019-05-06T19:13:02.126Z,7.70
2019-05-06T19:18:06.640Z,7.60
2019-05-06T19:23:13.066Z,7.50
2019-05-06T19:28:17.924Z,7.40
2019-05-06T19:33:22.490Z,7.30
2019-05-06T19:38:27.220Z,7.10
2019-05-06T19:43:32.934Z,7.10
2019-05-06T19:48:37.991Z,6.90
2019-05-06T19:53:42.972Z,6.90
2019-05-06T19:58:47.624Z,6.80
2019-05-06T20:03:52.710Z,6.70
2019-05-06T20:09:09.170Z,6.70
2019-05-06T20:14:13.788Z,6.60
2019-05-06T20:19:29.840Z,6.50
2019-05-06T20:24:26.092Z,6.40
2019-05-06T20:29:35.202Z,6.30
2019-05-06T20:34:39.603Z,6.20
2019-05-06T20:39:44.321Z,6.20
2019-05-06T20:44:49.310Z,6.10
2019-05-06T20:49:54.969Z,6.10
2019-05-06T20:55:00.052Z,5.90
2019-05-06T21:00:07.288Z,5.80
2019-05-06T21:05:13.913Z,5.70
2019-05-06T21:10:22.089Z,5.50
2019-05-06T21:15:27.245Z,5.20
2019-05-06T21:20:32.999Z,4.80
2019-05-06T21:25:38.204Z,4.60
2019-05-06T21:30:43.017Z,4.40
2019-05-06T21:35:48.868Z,4.20
2019-05-06T21:40:53.988Z,4.10
2019-05-06T21:45:58.657Z,3.90
2019-05-06T21:51:04.369Z,3.80
2019-05-06T21:56:10.159Z,3.70
2019-05-06T22:01:14.693Z,3.70
2019-05-06T22:06:19.687Z,3.70
2019-05-06T22:11:24.605Z,3.70
2019-05-06T22:16:29.265Z,3.70
2019-05-06T22:21:34.598Z,3.70
2019-05-06T22:26:39.196Z,3.80
2019-05-06T22:31:43.969Z,3.90
2019-05-06T22:36:48.652Z,4.00
2019-05-06T22:41:53.102Z,4.10
2019-05-06T22:46:58.156Z,4.20
2019-05-06T22:52:03.029Z,4.20
2019-05-06T22:57:08.756Z,4.20
2019-05-06T23:02:28.519Z,4.20
2019-05-06T23:07:34.069Z,4.30
2019-05-06T23:12:38.565Z,4.30
2019-05-06T23:17:43.539Z,4.40
2019-05-06T23:22:48.674Z,4.40
2019-05-06T23:27:53.524Z,4.50
2019-05-06T23:32:58.745Z,4.50
2019-05-06T23:38:39.189Z,4.40
2019-05-06T23:44:19.884Z,4.40
2019-05-06T23:50:00.367Z,4.40
2019-05-06T23:55:42.014Z,4.30
